sensor_id;sensor_type;location;lat;lon;timestamp;temperature;humidity
75786;DHT22;64402;44.708;37.644;2023-08-17T00:00:38;26.57;45.41
75786;DHT22;64402;44.708;37.644;2023-08-17T00:03:05;26.57;45.38
75786;DHT22;64402;44.708;37.644;2023-08-17T00:05:31;26.55;45.47
75786;DHT22;64402;44.708;37.644;2023-08-17T00:08:00;26.56;45.33
75786;DHT22;64402;44.708;37.644;2023-08-17T00:10:26;26.53;45.25
75786;DHT22;64402;44.708;37.644;2023-08-17T00:12:52;26.56;44.93
75786;DHT22;64402;44.708;37.644;2023-08-17T00:15:19;26.57;45.11
75786;DHT22;64402;44.708;37.644;2023-08-17T00:17:45;26.54;44.93
75786;DHT22;64402;44.708;37.644;2023-08-17T00:20:11;26.64;44.45
75786;DHT22;64402;44.708;37.644;2023-08-17T00:22:37;26.69;44.38
75786;DHT22;64402;44.708;37.644;2023-08-17T00:25:04;26.72;44.45
75786;DHT22;64402;44.708;37.644;2023-08-17T00:27:33;26.71;44.00
75786;DHT22;64402;44.708;37.644;2023-08-17T00:30:00;26.70;43.87
75786;DHT22;64402;44.708;37.644;2023-08-17T00:32:27;26.69;43.85
75786;DHT22;64402;44.708;37.644;2023-08-17T00:34:55;26.67;43.77
75786;DHT22;64402;44.708;37.644;2023-08-17T00:37:21;26.70;43.74
75786;DHT22;64402;44.708;37.644;2023-08-17T00:39:47;26.70;43.47
75786;DHT22;64402;44.708;37.644;2023-08-17T00:42:13;26.75;43.09
75786;DHT22;64402;44.708;37.644;2023-08-17T00:44:39;26.78;43.08
75786;DHT22;64402;44.708;37.644;2023-08-17T00:47:05;26.75;42.75
75786;DHT22;64402;44.708;37.644;2023-08-17T00:49:32;26.76;42.90
75786;DHT22;64402;44.708;37.644;2023-08-17T00:52:00;26.71;43.05
75786;DHT22;64402;44.708;37.644;2023-08-17T00:54:26;26.80;42.93
75786;DHT22;64402;44.708;37.644;2023-08-17T00:56:53;26.77;42.88
75786;DHT22;64402;44.708;37.644;2023-08-17T00:59:21;26.73;43.04
75786;DHT22;64402;44.708;37.644;2023-08-17T01:01:48;26.72;42.88
75786;DHT22;64402;44.708;37.644;2023-08-17T01:04:14;26.78;42.65
75786;DHT22;64402;44.708;37.644;2023-08-17T01:06:41;26.78;42.92
75786;DHT22;64402;44.708;37.644;2023-08-17T01:09:08;26.68;43.40
75786;DHT22;64402;44.708;37.644;2023-08-17T01:11:39;26.63;43.58
75786;DHT22;64402;44.708;37.644;2023-08-17T01:14:43;26.65;43.49
75786;DHT22;64402;44.708;37.644;2023-08-17T01:17:17;26.63;43.74
75786;DHT22;64402;44.708;37.644;2023-08-17T01:19:44;26.58;43.42
75786;DHT22;64402;44.708;37.644;2023-08-17T01:22:11;26.52;43.85
75786;DHT22;64402;44.708;37.644;2023-08-17T01:24:38;26.46;43.86
75786;DHT22;64402;44.708;37.644;2023-08-17T01:27:05;26.45;43.49
75786;DHT22;64402;44.708;37.644;2023-08-17T01:29:31;26.53;43.13
75786;DHT22;64402;44.708;37.644;2023-08-17T01:32:50;26.57;43.22
75786;DHT22;64402;44.708;37.644;2023-08-17T01:36:04;26.50;43.28
75786;DHT22;64402;44.708;37.644;2023-08-17T01:38:12;26.47;43.13
75786;DHT22;64402;44.708;37.644;2023-08-17T01:40:41;26.43;43.49
75786;DHT22;64402;44.708;37.644;2023-08-17T01:43:10;26.40;43.80
75786;DHT22;64402;44.708;37.644;2023-08-17T01:45:37;26.39;43.46
75786;DHT22;64402;44.708;37.644;2023-08-17T01:48:03;26.38;43.77
75786;DHT22;64402;44.708;37.644;2023-08-17T01:50:29;26.36;43.94
75786;DHT22;64402;44.708;37.644;2023-08-17T01:52:55;26.35;43.69
75786;DHT22;64402;44.708;37.644;2023-08-17T01:55:22;26.35;43.76
75786;DHT22;64402;44.708;37.644;2023-08-17T01:57:51;26.31;44.00
75786;DHT22;64402;44.708;37.644;2023-08-17T02:00:17;26.24;44.51
75786;DHT22;64402;44.708;37.644;2023-08-17T02:02:43;26.19;44.75
75786;DHT22;64402;44.708;37.644;2023-08-17T02:05:09;26.16;44.28
75786;DHT22;64402;44.708;37.644;2023-08-17T02:07:35;26.17;44.49
75786;DHT22;64402;44.708;37.644;2023-08-17T02:10:02;26.18;44.51
75786;DHT22;64402;44.708;37.644;2023-08-17T02:12:28;26.13;44.31
75786;DHT22;64402;44.708;37.644;2023-08-17T02:14:54;26.17;43.93
75786;DHT22;64402;44.708;37.644;2023-08-17T02:17:20;26.19;43.69
75786;DHT22;64402;44.708;37.644;2023-08-17T02:19:48;26.23;43.57
75786;DHT22;64402;44.708;37.644;2023-08-17T02:22:15;26.33;43.16
75786;DHT22;64402;44.708;37.644;2023-08-17T02:24:41;26.30;43.41
75786;DHT22;64402;44.708;37.644;2023-08-17T02:27:09;26.31;43.72
75786;DHT22;64402;44.708;37.644;2023-08-17T02:29:35;26.30;43.71
75786;DHT22;64402;44.708;37.644;2023-08-17T02:32:01;26.26;43.96
75786;DHT22;64402;44.708;37.644;2023-08-17T02:34:27;26.23;44.14
75786;DHT22;64402;44.708;37.644;2023-08-17T02:36:53;26.20;44.42
75786;DHT22;64402;44.708;37.644;2023-08-17T02:39:19;26.17;44.74
75786;DHT22;64402;44.708;37.644;2023-08-17T02:41:46;26.10;45.19
75786;DHT22;64402;44.708;37.644;2023-08-17T02:44:14;26.05;45.42
75786;DHT22;64402;44.708;37.644;2023-08-17T02:46:41;26.01;45.51
75786;DHT22;64402;44.708;37.644;2023-08-17T02:49:07;25.95;45.41
75786;DHT22;64402;44.708;37.644;2023-08-17T02:51:33;25.94;45.49
75786;DHT22;64402;44.708;37.644;2023-08-17T02:53:59;25.91;45.65
75786;DHT22;64402;44.708;37.644;2023-08-17T02:56:25;25.90;45.78
75786;DHT22;64402;44.708;37.644;2023-08-17T02:58:52;25.91;45.86
75786;DHT22;64402;44.708;37.644;2023-08-17T03:01:18;25.88;45.71
75786;DHT22;64402;44.708;37.644;2023-08-17T03:03:44;25.90;45.66
75786;DHT22;64402;44.708;37.644;2023-08-17T03:06:10;25.92;45.48
75786;DHT22;64402;44.708;37.644;2023-08-17T03:08:36;25.92;45.65
75786;DHT22;64402;44.708;37.644;2023-08-17T03:11:02;25.93;45.83
75786;DHT22;64402;44.708;37.644;2023-08-17T03:13:28;25.92;45.86
75786;DHT22;64402;44.708;37.644;2023-08-17T03:15:54;25.93;46.14
75786;DHT22;64402;44.708;37.644;2023-08-17T03:18:20;25.94;46.01
75786;DHT22;64402;44.708;37.644;2023-08-17T03:20:46;25.96;46.11
75786;DHT22;64402;44.708;37.644;2023-08-17T03:23:13;25.97;46.29
75786;DHT22;64402;44.708;37.644;2023-08-17T03:25:39;25.98;46.59
75786;DHT22;64402;44.708;37.644;2023-08-17T03:28:05;25.97;46.73
75786;DHT22;64402;44.708;37.644;2023-08-17T03:30:32;25.96;46.70
75786;DHT22;64402;44.708;37.644;2023-08-17T03:32:58;25.95;46.99
75786;DHT22;64402;44.708;37.644;2023-08-17T03:35:24;25.97;46.53
75786;DHT22;64402;44.708;37.644;2023-08-17T03:37:50;26.02;46.49
75786;DHT22;64402;44.708;37.644;2023-08-17T03:40:16;26.06;46.41
75786;DHT22;64402;44.708;37.644;2023-08-17T03:42:43;26.08;46.22
75786;DHT22;64402;44.708;37.644;2023-08-17T03:45:09;26.15;46.25
75786;DHT22;64402;44.708;37.644;2023-08-17T03:47:35;26.17;46.38
75786;DHT22;64402;44.708;37.644;2023-08-17T03:50:01;26.20;46.25
75786;DHT22;64402;44.708;37.644;2023-08-17T03:52:27;26.23;46.10
75786;DHT22;64402;44.708;37.644;2023-08-17T03:54:53;26.26;46.36
75786;DHT22;64402;44.708;37.644;2023-08-17T03:57:19;26.30;46.55
75786;DHT22;64402;44.708;37.644;2023-08-17T03:59:45;26.31;46.63
75786;DHT22;64402;44.708;37.644;2023-08-17T04:02:11;26.32;46.71
75786;DHT22;64402;44.708;37.644;2023-08-17T04:04:37;26.35;46.66
75786;DHT22;64402;44.708;37.644;2023-08-17T04:07:04;26.35;47.06
75786;DHT22;64402;44.708;37.644;2023-08-17T04:09:30;26.35;47.30
75786;DHT22;64402;44.708;37.644;2023-08-17T04:11:56;26.38;47.13
75786;DHT22;64402;44.708;37.644;2023-08-17T04:14:23;26.40;47.16
75786;DHT22;64402;44.708;37.644;2023-08-17T04:16:49;26.43;47.12
75786;DHT22;64402;44.708;37.644;2023-08-17T04:19:15;26.50;46.37
75786;DHT22;64402;44.708;37.644;2023-08-17T04:21:41;26.54;46.57
75786;DHT22;64402;44.708;37.644;2023-08-17T04:24:07;26.60;46.30
75786;DHT22;64402;44.708;37.644;2023-08-17T04:26:33;26.66;46.04
75786;DHT22;64402;44.708;37.644;2023-08-17T04:28:59;26.71;46.23
75786;DHT22;64402;44.708;37.644;2023-08-17T04:31:25;26.79;45.32
75786;DHT22;64402;44.708;37.644;2023-08-17T04:33:52;26.90;44.48
75786;DHT22;64402;44.708;37.644;2023-08-17T04:36:18;27.04;43.76
75786;DHT22;64402;44.708;37.644;2023-08-17T04:38:44;27.16;43.19
75786;DHT22;64402;44.708;37.644;2023-08-17T04:41:10;27.27;42.85
75786;DHT22;64402;44.708;37.644;2023-08-17T04:43:36;27.37;42.78
75786;DHT22;64402;44.708;37.644;2023-08-17T04:46:02;27.42;43.02
75786;DHT22;64402;44.708;37.644;2023-08-17T04:48:29;27.49;42.61
75786;DHT22;64402;44.708;37.644;2023-08-17T04:50:55;27.55;42.73
75786;DHT22;64402;44.708;37.644;2023-08-17T04:53:21;27.64;42.64
75786;DHT22;64402;44.708;37.644;2023-08-17T04:55:47;27.68;42.50
75786;DHT22;64402;44.708;37.644;2023-08-17T04:58:13;27.72;42.02
75786;DHT22;64402;44.708;37.644;2023-08-17T05:00:39;27.80;42.01
75786;DHT22;64402;44.708;37.644;2023-08-17T05:03:05;27.87;41.33
75786;DHT22;64402;44.708;37.644;2023-08-17T05:05:31;27.96;41.05
75786;DHT22;64402;44.708;37.644;2023-08-17T05:07:57;28.04;40.82
75786;DHT22;64402;44.708;37.644;2023-08-17T05:10:24;28.14;41.13
75786;DHT22;64402;44.708;37.644;2023-08-17T05:12:50;28.21;40.66
75786;DHT22;64402;44.708;37.644;2023-08-17T05:15:16;28.31;40.39
75786;DHT22;64402;44.708;37.644;2023-08-17T05:17:42;28.41;39.71
75786;DHT22;64402;44.708;37.644;2023-08-17T05:20:08;28.49;39.67
75786;DHT22;64402;44.708;37.644;2023-08-17T05:22:35;28.59;39.55
75786;DHT22;64402;44.708;37.644;2023-08-17T05:25:01;28.70;39.49
75786;DHT22;64402;44.708;37.644;2023-08-17T05:27:27;28.77;39.23
75786;DHT22;64402;44.708;37.644;2023-08-17T05:29:54;28.87;38.99
75786;DHT22;64402;44.708;37.644;2023-08-17T05:32:20;28.93;38.75
75786;DHT22;64402;44.708;37.644;2023-08-17T05:34:47;29.04;38.36
75786;DHT22;64402;44.708;37.644;2023-08-17T05:37:13;29.16;37.79
75786;DHT22;64402;44.708;37.644;2023-08-17T05:39:41;29.26;37.67
75786;DHT22;64402;44.708;37.644;2023-08-17T05:42:07;29.36;38.23
75786;DHT22;64402;44.708;37.644;2023-08-17T05:44:35;29.46;37.72
75786;DHT22;64402;44.708;37.644;2023-08-17T05:47:02;29.56;37.49
75786;DHT22;64402;44.708;37.644;2023-08-17T05:49:28;29.60;36.93
75786;DHT22;64402;44.708;37.644;2023-08-17T05:51:54;29.68;37.29
75786;DHT22;64402;44.708;37.644;2023-08-17T05:54:20;29.74;37.10
75786;DHT22;64402;44.708;37.644;2023-08-17T05:56:46;29.86;37.05
75786;DHT22;64402;44.708;37.644;2023-08-17T05:59:13;29.96;36.26
75786;DHT22;64402;44.708;37.644;2023-08-17T06:01:40;30.06;36.60
75786;DHT22;64402;44.708;37.644;2023-08-17T06:04:06;30.15;35.82
75786;DHT22;64402;44.708;37.644;2023-08-17T06:06:33;30.21;36.15
75786;DHT22;64402;44.708;37.644;2023-08-17T06:08:59;30.28;35.86
75786;DHT22;64402;44.708;37.644;2023-08-17T06:11:26;30.35;36.11
75786;DHT22;64402;44.708;37.644;2023-08-17T06:13:52;30.47;34.72
75786;DHT22;64402;44.708;37.644;2023-08-17T06:16:18;30.63;34.76
75786;DHT22;64402;44.708;37.644;2023-08-17T06:18:44;30.77;34.86
75786;DHT22;64402;44.708;37.644;2023-08-17T06:21:10;30.89;35.07
75786;DHT22;64402;44.708;37.644;2023-08-17T06:23:36;31.02;34.96
75786;DHT22;64402;44.708;37.644;2023-08-17T06:26:03;31.13;34.31
75786;DHT22;64402;44.708;37.644;2023-08-17T06:28:29;31.25;34.75
75786;DHT22;64402;44.708;37.644;2023-08-17T06:30:55;31.41;34.07
75786;DHT22;64402;44.708;37.644;2023-08-17T06:33:22;31.44;33.66
75786;DHT22;64402;44.708;37.644;2023-08-17T06:35:49;31.52;33.40
75786;DHT22;64402;44.708;37.644;2023-08-17T06:38:16;31.67;34.11
75786;DHT22;64402;44.708;37.644;2023-08-17T06:40:42;31.82;33.83
75786;DHT22;64402;44.708;37.644;2023-08-17T06:43:08;31.87;33.77
75786;DHT22;64402;44.708;37.644;2023-08-17T06:45:35;31.93;33.39
75786;DHT22;64402;44.708;37.644;2023-08-17T06:48:01;31.98;33.36
75786;DHT22;64402;44.708;37.644;2023-08-17T06:50:27;32.11;33.72
75786;DHT22;64402;44.708;37.644;2023-08-17T06:52:54;32.17;33.63
75786;DHT22;64402;44.708;37.644;2023-08-17T06:55:20;32.28;33.12
75786;DHT22;64402;44.708;37.644;2023-08-17T06:57:47;32.37;32.58
75786;DHT22;64402;44.708;37.644;2023-08-17T07:00:18;32.46;32.58
75786;DHT22;64402;44.708;37.644;2023-08-17T07:02:48;32.60;31.86
75786;DHT22;64402;44.708;37.644;2023-08-17T07:05:15;32.74;32.15
75786;DHT22;64402;44.708;37.644;2023-08-17T07:07:41;32.75;31.81
75786;DHT22;64402;44.708;37.644;2023-08-17T07:10:09;32.78;31.66
75786;DHT22;64402;44.708;37.644;2023-08-17T07:12:39;32.88;31.34
75786;DHT22;64402;44.708;37.644;2023-08-17T07:15:07;33.05;31.52
75786;DHT22;64402;44.708;37.644;2023-08-17T07:17:33;33.15;30.90
75786;DHT22;64402;44.708;37.644;2023-08-17T07:20:05;33.22;31.02
75786;DHT22;64402;44.708;37.644;2023-08-17T07:22:33;33.38;31.10
75786;DHT22;64402;44.708;37.644;2023-08-17T07:24:59;33.47;29.93
75786;DHT22;64402;44.708;37.644;2023-08-17T07:27:26;33.57;29.66
75786;DHT22;64402;44.708;37.644;2023-08-17T07:29:52;33.70;29.68
75786;DHT22;64402;44.708;37.644;2023-08-17T07:32:18;33.85;29.44
75786;DHT22;64402;44.708;37.644;2023-08-17T07:34:44;34.03;29.28
75786;DHT22;64402;44.708;37.644;2023-08-17T07:37:10;34.03;28.61
75786;DHT22;64402;44.708;37.644;2023-08-17T07:39:37;34.07;29.07
75786;DHT22;64402;44.708;37.644;2023-08-17T07:42:03;34.20;29.04
75786;DHT22;64402;44.708;37.644;2023-08-17T07:44:29;34.33;28.42
75786;DHT22;64402;44.708;37.644;2023-08-17T07:46:57;34.27;28.61
75786;DHT22;64402;44.708;37.644;2023-08-17T07:49:25;34.36;28.61
75786;DHT22;64402;44.708;37.644;2023-08-17T07:51:51;34.40;28.72
75786;DHT22;64402;44.708;37.644;2023-08-17T07:54:17;34.49;28.74
75786;DHT22;64402;44.708;37.644;2023-08-17T07:56:43;34.55;28.39
75786;DHT22;64402;44.708;37.644;2023-08-17T07:59:10;34.52;28.44
75786;DHT22;64402;44.708;37.644;2023-08-17T08:01:36;34.62;28.24
75786;DHT22;64402;44.708;37.644;2023-08-17T08:04:02;34.75;27.91
75786;DHT22;64402;44.708;37.644;2023-08-17T08:06:28;34.95;28.16
75786;DHT22;64402;44.708;37.644;2023-08-17T08:08:54;35.10;27.55
75786;DHT22;64402;44.708;37.644;2023-08-17T08:11:22;35.12;27.20
75786;DHT22;64402;44.708;37.644;2023-08-17T08:13:48;35.08;27.74
75786;DHT22;64402;44.708;37.644;2023-08-17T08:16:14;35.07;27.55
75786;DHT22;64402;44.708;37.644;2023-08-17T08:18:40;35.11;27.68
75786;DHT22;64402;44.708;37.644;2023-08-17T08:21:07;35.24;27.09
75786;DHT22;64402;44.708;37.644;2023-08-17T08:23:33;35.28;26.95
75786;DHT22;64402;44.708;37.644;2023-08-17T08:25:59;35.96;26.10
75786;DHT22;64402;44.708;37.644;2023-08-17T08:28:25;37.56;23.16
75786;DHT22;64402;44.708;37.644;2023-08-17T08:30:52;39.34;20.86
75786;DHT22;64402;44.708;37.644;2023-08-17T08:33:18;40.77;18.38
75786;DHT22;64402;44.708;37.644;2023-08-17T08:35:45;41.66;17.29
75786;DHT22;64402;44.708;37.644;2023-08-17T08:38:11;42.34;16.40
75786;DHT22;64402;44.708;37.644;2023-08-17T08:40:40;42.78;15.79
75786;DHT22;64402;44.708;37.644;2023-08-17T08:43:08;43.41;15.24
75786;DHT22;64402;44.708;37.644;2023-08-17T08:45:41;44.28;14.17
75786;DHT22;64402;44.708;37.644;2023-08-17T08:48:08;45.07;13.08
75786;DHT22;64402;44.708;37.644;2023-08-17T08:50:36;45.22;13.06
75786;DHT22;64402;44.708;37.644;2023-08-17T08:53:03;45.53;12.79
75786;DHT22;64402;44.708;37.644;2023-08-17T08:55:37;46.35;12.25
75786;DHT22;64402;44.708;37.644;2023-08-17T08:58:04;46.63;12.01
75786;DHT22;64402;44.708;37.644;2023-08-17T09:00:33;46.96;10.81
75786;DHT22;64402;44.708;37.644;2023-08-17T09:03:02;47.69;10.72
75786;DHT22;64402;44.708;37.644;2023-08-17T09:05:31;48.10;10.01
75786;DHT22;64402;44.708;37.644;2023-08-17T09:07:59;48.49;9.91
75786;DHT22;64402;44.708;37.644;2023-08-17T09:10:26;48.55;9.79
75786;DHT22;64402;44.708;37.644;2023-08-17T09:12:52;49.00;9.45
75786;DHT22;64402;44.708;37.644;2023-08-17T09:15:18;49.12;9.44
75786;DHT22;64402;44.708;37.644;2023-08-17T09:17:45;48.91;9.69
75786;DHT22;64402;44.708;37.644;2023-08-17T09:20:40;49.27;8.24
75786;DHT22;64402;44.708;37.644;2023-08-17T09:23:16;49.79;7.92
75786;DHT22;64402;44.708;37.644;2023-08-17T09:25:44;49.88;8.31
75786;DHT22;64402;44.708;37.644;2023-08-17T09:28:12;50.73;7.50
75786;DHT22;64402;44.708;37.644;2023-08-17T09:31:01;51.08;7.15
75786;DHT22;64402;44.708;37.644;2023-08-17T09:33:30;51.19;7.12
75786;DHT22;64402;44.708;37.644;2023-08-17T09:35:58;51.58;6.58
75786;DHT22;64402;44.708;37.644;2023-08-17T09:38:26;52.21;6.57
75786;DHT22;64402;44.708;37.644;2023-08-17T09:40:52;52.85;5.80
75786;DHT22;64402;44.708;37.644;2023-08-17T09:43:19;52.35;5.96
75786;DHT22;64402;44.708;37.644;2023-08-17T09:45:49;51.97;6.23
75786;DHT22;64402;44.708;37.644;2023-08-17T09:48:19;51.87;6.44
75786;DHT22;64402;44.708;37.644;2023-08-17T09:50:47;52.30;5.96
75786;DHT22;64402;44.708;37.644;2023-08-17T09:53:15;52.45;6.13
75786;DHT22;64402;44.708;37.644;2023-08-17T09:55:42;52.61;5.47
75786;DHT22;64402;44.708;37.644;2023-08-17T09:58:09;53.02;5.37
75786;DHT22;64402;44.708;37.644;2023-08-17T10:00:36;53.01;5.23
75786;DHT22;64402;44.708;37.644;2023-08-17T10:03:04;52.45;5.54
75786;DHT22;64402;44.708;37.644;2023-08-17T10:05:37;52.42;5.49
75786;DHT22;64402;44.708;37.644;2023-08-17T10:08:06;52.76;4.86
75786;DHT22;64402;44.708;37.644;2023-08-17T10:10:35;53.03;4.81
75786;DHT22;64402;44.708;37.644;2023-08-17T10:13:21;53.35;4.73
75786;DHT22;64402;44.708;37.644;2023-08-17T10:21:27;54.83;3.48
75786;DHT22;64402;44.708;37.644;2023-08-17T10:23:57;54.90;3.38
75786;DHT22;64402;44.708;37.644;2023-08-17T10:26:24;54.22;3.92
75786;DHT22;64402;44.708;37.644;2023-08-17T10:28:51;53.84;4.00
75786;DHT22;64402;44.708;37.644;2023-08-17T10:31:18;54.06;3.91
75786;DHT22;64402;44.708;37.644;2023-08-17T10:33:45;54.28;3.68
75786;DHT22;64402;44.708;37.644;2023-08-17T10:36:13;55.22;3.39
75786;DHT22;64402;44.708;37.644;2023-08-17T10:38:40;54.81;3.17
75786;DHT22;64402;44.708;37.644;2023-08-17T10:41:12;55.08;2.95
75786;DHT22;64402;44.708;37.644;2023-08-17T10:43:57;54.91;2.59
75786;DHT22;64402;44.708;37.644;2023-08-17T10:46:35;54.88;2.74
75786;DHT22;64402;44.708;37.644;2023-08-17T10:49:03;54.66;2.94
75786;DHT22;64402;44.708;37.644;2023-08-17T10:51:31;55.20;3.03
75786;DHT22;64402;44.708;37.644;2023-08-17T10:54:03;55.18;2.39
75786;DHT22;64402;44.708;37.644;2023-08-17T10:56:30;55.05;2.90
75786;DHT22;64402;44.708;37.644;2023-08-17T10:59:00;55.08;2.77
75786;DHT22;64402;44.708;37.644;2023-08-17T11:01:35;55.48;2.78
75786;DHT22;64402;44.708;37.644;2023-08-17T11:04:17;56.06;2.19
75786;DHT22;64402;44.708;37.644;2023-08-17T11:06:45;55.85;2.03
75786;DHT22;64402;44.708;37.644;2023-08-17T11:09:11;55.36;2.64
75786;DHT22;64402;44.708;37.644;2023-08-17T11:11:38;55.48;2.75
75786;DHT22;64402;44.708;37.644;2023-08-17T11:14:04;56.12;2.20
75786;DHT22;64402;44.708;37.644;2023-08-17T11:16:30;56.34;1.98
75786;DHT22;64402;44.708;37.644;2023-08-17T11:18:56;55.87;2.31
75786;DHT22;64402;44.708;37.644;2023-08-17T11:21:24;55.79;2.29
75786;DHT22;64402;44.708;37.644;2023-08-17T11:23:50;56.46;2.09
75786;DHT22;64402;44.708;37.644;2023-08-17T11:26:18;56.01;2.42
75786;DHT22;64402;44.708;37.644;2023-08-17T11:28:44;54.98;2.87
75786;DHT22;64402;44.708;37.644;2023-08-17T11:31:13;54.98;2.90
75786;DHT22;64402;44.708;37.644;2023-08-17T11:33:41;54.86;3.12
75786;DHT22;64402;44.708;37.644;2023-08-17T11:36:08;55.09;3.06
75786;DHT22;64402;44.708;37.644;2023-08-17T11:38:40;55.80;2.52
75786;DHT22;64402;44.708;37.644;2023-08-17T11:41:07;56.00;2.28
75786;DHT22;64402;44.708;37.644;2023-08-17T11:43:37;55.55;2.51
75786;DHT22;64402;44.708;37.644;2023-08-17T11:46:04;55.95;2.40
75786;DHT22;64402;44.708;37.644;2023-08-17T11:48:31;56.26;2.25
75786;DHT22;64402;44.708;37.644;2023-08-17T11:50:57;56.48;2.13
75786;DHT22;64402;44.708;37.644;2023-08-17T11:53:24;56.74;2.01
75786;DHT22;64402;44.708;37.644;2023-08-17T11:55:50;57.01;1.68
75786;DHT22;64402;44.708;37.644;2023-08-17T11:58:17;57.74;1.58
75786;DHT22;64402;44.708;37.644;2023-08-17T12:00:44;57.33;1.55
75786;DHT22;64402;44.708;37.644;2023-08-17T12:03:14;56.93;1.59
75786;DHT22;64402;44.708;37.644;2023-08-17T12:05:42;56.34;1.96
75786;DHT22;64402;44.708;37.644;2023-08-17T12:08:09;55.79;2.24
75786;DHT22;64402;44.708;37.644;2023-08-17T12:10:37;55.37;2.58
75786;DHT22;64402;44.708;37.644;2023-08-17T12:13:04;55.65;2.45
75786;DHT22;64402;44.708;37.644;2023-08-17T12:15:34;56.39;2.14
75786;DHT22;64402;44.708;37.644;2023-08-17T12:18:04;56.20;2.21
75786;DHT22;64402;44.708;37.644;2023-08-17T12:20:33;56.20;2.32
75786;DHT22;64402;44.708;37.644;2023-08-17T12:23:02;56.40;2.05
75786;DHT22;64402;44.708;37.644;2023-08-17T12:25:28;55.56;2.45
75786;DHT22;64402;44.708;37.644;2023-08-17T12:27:58;55.52;2.58
75786;DHT22;64402;44.708;37.644;2023-08-17T12:30:30;55.81;2.49
75786;DHT22;64402;44.708;37.644;2023-08-17T12:33:02;55.74;2.64
75786;DHT22;64402;44.708;37.644;2023-08-17T12:35:29;54.88;2.85
75786;DHT22;64402;44.708;37.644;2023-08-17T12:37:55;55.01;2.96
75786;DHT22;64402;44.708;37.644;2023-08-17T12:40:22;55.24;2.70
75786;DHT22;64402;44.708;37.644;2023-08-17T12:42:49;55.64;2.54
75786;DHT22;64402;44.708;37.644;2023-08-17T12:45:15;56.04;2.14
75786;DHT22;64402;44.708;37.644;2023-08-17T12:47:42;56.42;2.13
75786;DHT22;64402;44.708;37.644;2023-08-17T12:50:08;55.55;2.37
75786;DHT22;64402;44.708;37.644;2023-08-17T12:52:35;55.11;2.68
75786;DHT22;64402;44.708;37.644;2023-08-17T12:55:01;55.19;2.61
75786;DHT22;64402;44.708;37.644;2023-08-17T12:57:28;55.03;2.67
75786;DHT22;64402;44.708;37.644;2023-08-17T12:59:55;54.68;2.83
75786;DHT22;64402;44.708;37.644;2023-08-17T13:02:21;55.33;2.78
75786;DHT22;64402;44.708;37.644;2023-08-17T13:04:47;55.21;2.64
75786;DHT22;64402;44.708;37.644;2023-08-17T13:07:14;55.59;2.50
75786;DHT22;64402;44.708;37.644;2023-08-17T13:09:42;55.46;2.19
75786;DHT22;64402;44.708;37.644;2023-08-17T13:12:08;55.65;2.36
75786;DHT22;64402;44.708;37.644;2023-08-17T13:14:34;56.23;1.90
75786;DHT22;64402;44.708;37.644;2023-08-17T13:17:00;55.63;2.04
75786;DHT22;64402;44.708;37.644;2023-08-17T13:19:26;55.31;2.22
75786;DHT22;64402;44.708;37.644;2023-08-17T13:21:53;55.29;2.50
75786;DHT22;64402;44.708;37.644;2023-08-17T13:24:19;54.59;2.83
75786;DHT22;64402;44.708;37.644;2023-08-17T13:26:45;54.62;2.96
75786;DHT22;64402;44.708;37.644;2023-08-17T13:29:11;54.78;2.83
75786;DHT22;64402;44.708;37.644;2023-08-17T13:31:38;54.63;2.93
75786;DHT22;64402;44.708;37.644;2023-08-17T13:34:04;54.91;2.80
75786;DHT22;64402;44.708;37.644;2023-08-17T13:36:30;55.27;2.45
75786;DHT22;64402;44.708;37.644;2023-08-17T13:38:56;55.37;2.56
75786;DHT22;64402;44.708;37.644;2023-08-17T13:41:22;54.86;2.60
75786;DHT22;64402;44.708;37.644;2023-08-17T13:43:50;54.52;2.84
75786;DHT22;64402;44.708;37.644;2023-08-17T13:46:20;54.46;2.81
75786;DHT22;64402;44.708;37.644;2023-08-17T13:48:47;54.05;3.28
75786;DHT22;64402;44.708;37.644;2023-08-17T13:51:13;53.45;3.43
75786;DHT22;64402;44.708;37.644;2023-08-17T13:53:39;53.46;3.51
75786;DHT22;64402;44.708;37.644;2023-08-17T13:56:06;53.68;3.37
75786;DHT22;64402;44.708;37.644;2023-08-17T13:58:36;53.53;3.62
75786;DHT22;64402;44.708;37.644;2023-08-17T14:01:03;53.13;3.70
75786;DHT22;64402;44.708;37.644;2023-08-17T14:03:29;53.14;3.77
75786;DHT22;64402;44.708;37.644;2023-08-17T14:05:55;53.39;3.64
75786;DHT22;64402;44.708;37.644;2023-08-17T14:08:21;52.96;3.71
75786;DHT22;64402;44.708;37.644;2023-08-17T14:10:47;52.72;3.86
75786;DHT22;64402;44.708;37.644;2023-08-17T14:13:14;52.59;3.97
75786;DHT22;64402;44.708;37.644;2023-08-17T14:15:40;52.71;3.95
75786;DHT22;64402;44.708;37.644;2023-08-17T14:18:06;52.48;4.07
75786;DHT22;64402;44.708;37.644;2023-08-17T14:20:32;52.64;4.20
75786;DHT22;64402;44.708;37.644;2023-08-17T14:22:58;51.83;4.31
75786;DHT22;64402;44.708;37.644;2023-08-17T14:25:24;50.76;4.96
75786;DHT22;64402;44.708;37.644;2023-08-17T14:27:50;49.94;5.62
75786;DHT22;64402;44.708;37.644;2023-08-17T14:30:17;49.63;5.86
75786;DHT22;64402;44.708;37.644;2023-08-17T14:32:43;49.56;5.96
75786;DHT22;64402;44.708;37.644;2023-08-17T14:35:09;49.53;5.93
75786;DHT22;64402;44.708;37.644;2023-08-17T14:37:35;49.75;6.02
75786;DHT22;64402;44.708;37.644;2023-08-17T14:40:01;49.69;6.00
75786;DHT22;64402;44.708;37.644;2023-08-17T14:42:27;48.95;6.44
75786;DHT22;64402;44.708;37.644;2023-08-17T14:44:55;48.64;6.58
75786;DHT22;64402;44.708;37.644;2023-08-17T14:47:21;47.98;7.18
75786;DHT22;64402;44.708;37.644;2023-08-17T14:49:47;48.02;7.17
75786;DHT22;64402;44.708;37.644;2023-08-17T14:52:13;47.91;7.33
75786;DHT22;64402;44.708;37.644;2023-08-17T14:54:39;48.14;7.16
75786;DHT22;64402;44.708;37.644;2023-08-17T14:57:05;47.70;7.47
75786;DHT22;64402;44.708;37.644;2023-08-17T14:59:31;47.66;7.34
75786;DHT22;64402;44.708;37.644;2023-08-17T15:01:57;47.51;7.53
75786;DHT22;64402;44.708;37.644;2023-08-17T15:04:24;47.42;7.50
75786;DHT22;64402;44.708;37.644;2023-08-17T15:06:49;47.62;7.66
75786;DHT22;64402;44.708;37.644;2023-08-17T15:09:16;47.46;7.76
75786;DHT22;64402;44.708;37.644;2023-08-17T15:11:42;46.95;8.14
75786;DHT22;64402;44.708;37.644;2023-08-17T15:14:08;46.65;8.57
75786;DHT22;64402;44.708;37.644;2023-08-17T15:16:34;46.49;8.46
75786;DHT22;64402;44.708;37.644;2023-08-17T15:19:00;46.42;8.62
75786;DHT22;64402;44.708;37.644;2023-08-17T15:21:26;46.04;8.82
75786;DHT22;64402;44.708;37.644;2023-08-17T15:23:56;45.47;9.32
75786;DHT22;64402;44.708;37.644;2023-08-17T15:26:22;45.00;9.81
75786;DHT22;64402;44.708;37.644;2023-08-17T15:28:48;44.95;10.24